createdAt,value
2023-01-29T00:00:42.057Z,10.63
2023-01-29T00:03:12.829Z,9.45
2023-01-29T00:05:50.720Z,9.90
2023-01-29T00:08:21.168Z,10.48
2023-01-29T00:10:49.361Z,12.13
2023-01-29T00:13:19.843Z,8.25
2023-01-29T00:16:00.533Z,15.80
2023-01-29T00:18:29.811Z,11.27
2023-01-29T00:20:57.638Z,12.23
2023-01-29T00:23:27.690Z,16.65
2023-01-29T00:26:03.543Z,12.63
2023-01-29T00:28:34.230Z,9.68
2023-01-29T00:31:19.982Z,11.35
2023-01-29T00:33:52.182Z,13.05
2023-01-29T00:36:23.393Z,13.25
2023-01-29T00:39:07.462Z,11.88
2023-01-29T00:42:01.510Z,11.65
2023-01-29T00:44:55.225Z,13.90
2023-01-29T00:47:38.938Z,21.50
2023-01-29T00:50:19.839Z,15.55
2023-01-29T00:52:56.468Z,15.63
2023-01-29T00:55:27.548Z,16.63
2023-01-29T00:58:04.141Z,12.95
2023-01-29T01:00:40.134Z,23.00
2023-01-29T01:03:13.997Z,14.55
2023-01-29T01:05:49.727Z,18.00
2023-01-29T01:08:46.361Z,14.00
2023-01-29T01:11:21.436Z,14.85
2023-01-29T01:13:49.031Z,14.15
2023-01-29T01:16:27.572Z,13.90
2023-01-29T01:19:06.816Z,14.85
2023-01-29T01:21:50.022Z,16.48
2023-01-29T01:24:25.548Z,16.05
2023-01-29T01:26:59.158Z,13.73
2023-01-29T01:29:36.216Z,18.20
2023-01-29T01:32:26.935Z,17.90
2023-01-29T01:35:05.897Z,16.17
2023-01-29T01:37:43.996Z,12.00
2023-01-29T01:40:24.809Z,12.93
2023-01-29T01:43:05.007Z,12.20
2023-01-29T01:45:40.386Z,11.48
2023-01-29T01:48:19.960Z,14.15
2023-01-29T01:50:57.193Z,15.55
2023-01-29T01:54:06.274Z,12.93
2023-01-29T01:56:55.739Z,15.40
2023-01-29T02:02:50.840Z,10.85
2023-01-29T02:05:37.352Z,11.32
2023-01-29T02:08:26.353Z,13.48
2023-01-29T02:10:59.049Z,16.67
2023-01-29T02:13:53.848Z,13.82
2023-01-29T02:16:40.539Z,12.90
2023-01-29T02:19:25.450Z,14.00
2023-01-29T02:22:35.296Z,15.50
2023-01-29T02:25:22.152Z,11.80
2023-01-29T02:27:50.520Z,12.43
2023-01-29T02:30:43.393Z,14.57
2023-01-29T02:36:33.146Z,11.90
2023-01-29T02:39:37.953Z,12.80
2023-01-29T02:42:23.363Z,13.07
2023-01-29T02:45:17.253Z,13.13
2023-01-29T02:48:11.726Z,13.15
2023-01-29T02:51:02.511Z,12.65
2023-01-29T02:53:46.204Z,13.38
2023-01-29T02:56:41.400Z,16.38
2023-01-29T02:59:55.301Z,15.15
2023-01-29T03:02:47.117Z,10.77
2023-01-29T03:06:04.392Z,10.52
2023-01-29T03:08:50.359Z,11.82
2023-01-29T03:11:32.862Z,12.52
2023-01-29T03:14:07.908Z,14.75
2023-01-29T03:16:49.470Z,10.75
2023-01-29T03:19:36.874Z,12.25
2023-01-29T03:22:25.638Z,12.05
2023-01-29T03:25:41.861Z,13.30
2023-01-29T03:28:41.139Z,10.20
2023-01-29T03:31:36.243Z,13.68
2023-01-29T03:34:30.598Z,9.18
2023-01-29T03:37:14.246Z,9.57
2023-01-29T03:39:45.140Z,7.97
2023-01-29T03:42:38.857Z,10.77
2023-01-29T03:45:20.938Z,11.43
2023-01-29T03:48:33.355Z,10.05
2023-01-29T03:51:21.617Z,13.13
2023-01-29T03:54:09.972Z,11.40
2023-01-29T03:57:19.185Z,9.13
2023-01-29T04:00:03.345Z,11.35
2023-01-29T04:03:10.441Z,8.70
2023-01-29T04:06:01.755Z,9.65
2023-01-29T04:08:42.506Z,8.82
2023-01-29T04:11:18.073Z,8.23
2023-01-29T04:13:53.856Z,10.68
2023-01-29T04:16:37.988Z,11.07
2023-01-29T04:19:29.113Z,9.35
2023-01-29T04:22:14.559Z,10.18
2023-01-29T04:24:52.596Z,10.68
2023-01-29T04:27:36.931Z,8.90
2023-01-29T04:30:34.082Z,9.38
2023-01-29T04:33:38.476Z,12.98
2023-01-29T04:36:28.773Z,10.88
2023-01-29T04:39:28.692Z,9.65
2023-01-29T04:42:11.170Z,9.20
2023-01-29T04:48:43.635Z,7.78
2023-01-29T04:51:19.760Z,7.57
2023-01-29T04:54:18.775Z,8.15
2023-01-29T04:57:36.660Z,8.75
2023-01-29T05:00:19.615Z,10.25
2023-01-29T05:02:49.690Z,8.68
2023-01-29T05:05:26.019Z,9.25
2023-01-29T05:07:59.464Z,8.20
2023-01-29T05:10:39.205Z,7.13
2023-01-29T05:13:11.067Z,8.43
2023-01-29T05:16:00.224Z,8.60
2023-01-29T05:18:36.362Z,8.80
2023-01-29T05:21:12.159Z,7.78
2023-01-29T05:23:46.844Z,10.50
2023-01-29T05:26:45.432Z,8.15
2023-01-29T05:29:18.307Z,10.35
2023-01-29T05:31:46.281Z,8.52
2023-01-29T05:34:13.919Z,9.00
2023-01-29T05:36:45.458Z,11.20
2023-01-29T05:39:22.387Z,9.75
2023-01-29T05:41:57.014Z,7.85
2023-01-29T05:44:27.884Z,9.02
2023-01-29T05:47:24.857Z,10.20
2023-01-29T05:49:55.463Z,9.10
2023-01-29T05:52:22.780Z,9.18
2023-01-29T05:54:56.244Z,8.18
2023-01-29T05:57:29.035Z,9.10
2023-01-29T06:00:02.331Z,7.50
2023-01-29T06:02:53.067Z,9.52
2023-01-29T06:05:23.338Z,9.30
2023-01-29T06:07:52.331Z,7.65
2023-01-29T06:10:20.506Z,10.02
2023-01-29T06:12:48.491Z,8.38
2023-01-29T06:15:17.070Z,10.93
2023-01-29T06:17:44.247Z,8.77
2023-01-29T06:20:15.153Z,32.13
2023-01-29T06:22:55.623Z,6.63
2023-01-29T06:25:37.583Z,5.28
2023-01-29T06:28:05.186Z,13.27
2023-01-29T06:30:32.882Z,6.22
2023-01-29T06:33:09.311Z,28.83
2023-01-29T06:35:56.949Z,6.22
2023-01-29T06:38:27.844Z,6.35
2023-01-29T06:41:01.647Z,7.68
2023-01-29T06:43:28.900Z,11.48
2023-01-29T06:46:08.034Z,6.40
2023-01-29T06:48:41.270Z,5.50
2023-01-29T06:51:13.314Z,7.40
2023-01-29T06:54:13.634Z,7.93
2023-01-29T06:56:41.424Z,9.13
2023-01-29T06:59:32.609Z,5.45
2023-01-29T07:02:06.045Z,6.32
2023-01-29T07:04:35.845Z,8.70
2023-01-29T07:07:21.170Z,7.43
2023-01-29T07:09:55.402Z,8.80
2023-01-29T07:12:31.824Z,10.43
2023-01-29T07:15:05.970Z,7.53
2023-01-29T07:17:42.783Z,7.78
2023-01-29T07:20:19.760Z,5.80
2023-01-29T07:22:52.002Z,5.43
2023-01-29T07:25:37.335Z,5.55
2023-01-29T07:28:08.068Z,5.57
2023-01-29T07:30:38.292Z,6.82
2023-01-29T07:33:13.102Z,7.57
2023-01-29T07:35:50.234Z,6.07
2023-01-29T07:38:21.530Z,7.82
2023-01-29T07:40:58.882Z,10.10
2023-01-29T07:43:36.197Z,8.52
2023-01-29T07:46:09.657Z,11.27
2023-01-29T07:48:50.257Z,10.52
2023-01-29T07:51:24.813Z,10.20
2023-01-29T07:53:59.697Z,10.02
2023-01-29T07:56:32.312Z,8.88
2023-01-29T07:59:10.975Z,14.30
2023-01-29T08:01:38.296Z,10.55
2023-01-29T08:04:05.740Z,10.68
2023-01-29T08:06:38.711Z,10.93
2023-01-29T08:09:13.930Z,9.27
2023-01-29T08:11:41.249Z,8.68
2023-01-29T08:14:13.936Z,12.68
2023-01-29T08:16:46.168Z,10.37
2023-01-29T08:19:28.057Z,11.57
2023-01-29T08:22:08.742Z,9.00
2023-01-29T08:24:53.335Z,13.38
2023-01-29T08:27:32.549Z,10.82
2023-01-29T08:30:00.177Z,11.63
2023-01-29T08:32:32.771Z,13.57
2023-01-29T08:35:00.589Z,15.15
2023-01-29T08:37:30.573Z,13.48
2023-01-29T08:40:03.894Z,10.77
2023-01-29T08:42:44.968Z,10.57
2023-01-29T08:45:12.609Z,11.18
2023-01-29T08:47:52.459Z,12.00
2023-01-29T08:50:25.014Z,14.93
2023-01-29T08:52:59.896Z,9.98
2023-01-29T08:55:29.490Z,11.00
2023-01-29T08:58:05.868Z,11.90
2023-01-29T09:00:52.688Z,9.18
2023-01-29T09:06:04.616Z,9.15
2023-01-29T09:08:34.763Z,8.43
2023-01-29T09:11:11.420Z,9.50
2023-01-29T09:13:52.865Z,11.93
2023-01-29T09:16:39.957Z,9.27
2023-01-29T09:19:17.795Z,12.60
2023-01-29T09:21:45.003Z,15.35
2023-01-29T09:24:12.316Z,9.27
2023-01-29T09:26:46.920Z,13.05
2023-01-29T09:32:00.988Z,11.65
2023-01-29T09:34:35.764Z,10.27
2023-01-29T09:37:05.912Z,12.38
2023-01-29T09:39:40.411Z,9.40
2023-01-29T09:42:27.952Z,11.23
2023-01-29T09:48:19.327Z,12.32
2023-01-29T09:51:41.719Z,14.82
2023-01-29T09:54:36.493Z,10.77
2023-01-29T09:57:17.700Z,11.65
2023-01-29T09:59:45.191Z,10.52
2023-01-29T10:02:52.146Z,13.77
2023-01-29T10:06:03.895Z,12.23
2023-01-29T10:09:03.943Z,12.40
2023-01-29T10:11:58.201Z,13.68
2023-01-29T10:15:00.302Z,14.73
2023-01-29T10:18:14.648Z,11.57
2023-01-29T10:21:16.038Z,21.92
2023-01-29T10:24:02.029Z,34.00
2023-01-29T10:26:40.961Z,17.80
2023-01-29T10:29:18.408Z,45.58
2023-01-29T10:32:10.187Z,14.68
2023-01-29T10:35:04.237Z,18.08
2023-01-29T10:37:45.446Z,18.67
2023-01-29T10:40:42.040Z,19.08
2023-01-29T10:46:39.033Z,17.27
2023-01-29T10:49:25.021Z,38.25
2023-01-29T10:52:07.409Z,34.83
2023-01-29T10:54:51.592Z,70.32
2023-01-29T10:57:45.806Z,32.72
2023-01-29T11:03:04.258Z,38.03
2023-01-29T11:05:47.647Z,38.38
2023-01-29T11:08:23.325Z,21.15
2023-01-29T11:12:00.422Z,20.40
2023-01-29T11:14:33.841Z,90.50
2023-01-29T11:17:01.297Z,84.18
2023-01-29T11:19:43.530Z,26.52
2023-01-29T11:22:16.825Z,20.75
2023-01-29T11:24:49.650Z,41.70
2023-01-29T11:27:32.162Z,32.63
2023-01-29T11:30:07.803Z,43.88
2023-01-29T11:32:51.273Z,18.08
2023-01-29T11:35:25.469Z,13.70
2023-01-29T11:38:08.194Z,17.92
2023-01-29T11:40:41.032Z,26.88
2023-01-29T11:43:29.253Z,18.83
2023-01-29T11:46:06.229Z,12.73
2023-01-29T11:48:59.222Z,12.98
2023-01-29T11:51:38.889Z,14.73
2023-01-29T11:54:20.322Z,10.63
2023-01-29T11:56:54.678Z,16.13
2023-01-29T11:59:26.874Z,27.17
2023-01-29T12:02:29.689Z,27.70
2023-01-29T12:05:14.596Z,13.50
2023-01-29T12:07:46.747Z,31.50
2023-01-29T12:10:40.630Z,16.80
2023-01-29T12:13:29.111Z,17.95
2023-01-29T12:16:33.398Z,13.32
2023-01-29T12:22:04.020Z,11.70
2023-01-29T12:28:15.336Z,11.43
2023-01-29T12:31:36.526Z,10.48
2023-01-29T12:34:49.966Z,18.20
2023-01-29T12:37:38.315Z,9.55
2023-01-29T12:40:17.341Z,12.88
2023-01-29T12:43:05.516Z,9.93
2023-01-29T12:45:37.727Z,13.45
2023-01-29T12:48:33.346Z,12.07
2023-01-29T12:51:18.846Z,12.02
2023-01-29T12:53:59.638Z,15.93
2023-01-29T12:56:56.594Z,19.05
2023-01-29T13:03:29.835Z,14.32
2023-01-29T13:06:13.178Z,12.77
2023-01-29T13:11:52.639Z,26.10
2023-01-29T13:14:29.170Z,16.67
2023-01-29T13:17:26.051Z,14.32
2023-01-29T13:20:01.037Z,15.70
2023-01-29T13:22:36.403Z,12.70
2023-01-29T13:25:22.704Z,13.35
2023-01-29T13:27:56.748Z,15.88
2023-01-29T13:30:35.008Z,14.00
2023-01-29T13:33:15.761Z,14.95
2023-01-29T13:35:49.542Z,21.67
2023-01-29T13:38:47.970Z,17.10
2023-01-29T13:41:31.619Z,15.35
2023-01-29T13:46:53.014Z,16.23
2023-01-29T13:50:05.790Z,20.23
2023-01-29T13:53:07.737Z,18.40
2023-01-29T13:55:42.659Z,17.90
2023-01-29T13:58:18.807Z,15.88
2023-01-29T14:01:00.392Z,18.33
2023-01-29T14:04:08.622Z,19.48
2023-01-29T14:06:43.371Z,23.77
2023-01-29T14:09:41.817Z,27.73
2023-01-29T14:15:26.329Z,15.15
2023-01-29T14:18:29.637Z,19.50
2023-01-29T14:21:34.173Z,19.90
2023-01-29T14:24:26.082Z,16.20
2023-01-29T14:27:10.966Z,18.08
2023-01-29T14:29:48.743Z,17.08
2023-01-29T14:32:25.369Z,18.20
2023-01-29T14:41:10.957Z,36.03
2023-01-29T14:43:38.250Z,17.25
2023-01-29T14:46:39.501Z,17.02
2023-01-29T14:49:12.487Z,15.07
2023-01-29T14:52:04.445Z,16.48
2023-01-29T14:54:42.429Z,16.55
2023-01-29T14:57:17.036Z,22.73
2023-01-29T14:59:59.660Z,22.33
2023-01-29T15:02:43.421Z,18.52
2023-01-29T15:05:36.334Z,16.05
2023-01-29T15:08:39.424Z,27.75
2023-01-29T15:11:53.779Z,21.80
2023-01-29T15:14:46.559Z,15.40
2023-01-29T15:17:34.027Z,16.33
2023-01-29T15:20:09.000Z,16.63
2023-01-29T15:22:43.223Z,13.65
2023-01-29T15:25:24.987Z,20.30
2023-01-29T15:27:58.874Z,14.60
2023-01-29T15:30:47.907Z,21.83
2023-01-29T15:33:25.777Z,18.92
2023-01-29T15:36:08.270Z,23.58
2023-01-29T15:38:36.861Z,24.58
2023-01-29T15:41:23.182Z,19.15
2023-01-29T15:44:23.673Z,14.57
2023-01-29T15:47:33.104Z,13.55
2023-01-29T15:50:00.890Z,18.25
2023-01-29T15:52:39.932Z,13.43
2023-01-29T15:55:31.791Z,15.05
2023-01-29T15:58:03.469Z,21.90
2023-01-29T16:00:38.834Z,14.68
2023-01-29T16:03:35.373Z,17.17
2023-01-29T16:06:05.417Z,15.75
2023-01-29T16:08:59.608Z,16.13
2023-01-29T16:13:59.286Z,18.38
2023-01-29T16:16:28.291Z,19.45
2023-01-29T16:19:03.351Z,15.77
2023-01-29T16:21:36.969Z,16.40
2023-01-29T16:27:17.719Z,18.95
2023-01-29T16:29:54.057Z,22.20
2023-01-29T16:32:26.092Z,22.15
2023-01-29T16:35:00.386Z,16.48
2023-01-29T16:37:36.619Z,15.00
2023-01-29T16:40:26.099Z,20.48
2023-01-29T16:43:20.655Z,13.80
2023-01-29T16:46:32.848Z,22.55
2023-01-29T16:49:30.388Z,19.90
2023-01-29T16:52:24.408Z,15.07
2023-01-29T16:54:55.751Z,18.65
2023-01-29T16:57:35.993Z,16.15
2023-01-29T17:00:18.718Z,21.88
2023-01-29T17:02:46.369Z,14.27
2023-01-29T17:05:53.677Z,18.60
2023-01-29T17:08:35.029Z,17.90
2023-01-29T17:11:07.412Z,17.17
2023-01-29T17:13:47.032Z,16.77
2023-01-29T17:16:29.574Z,16.05
2023-01-29T17:19:00.903Z,21.83
2023-01-29T17:21:38.920Z,14.35
2023-01-29T17:24:07.567Z,15.40
2023-01-29T17:27:13.550Z,16.95
2023-01-29T17:29:47.022Z,10.95
2023-01-29T17:34:59.644Z,11.65
2023-01-29T17:37:32.744Z,14.88
2023-01-29T17:40:39.069Z,13.65
2023-01-29T17:43:21.574Z,15.88
2023-01-29T17:45:48.971Z,11.70
2023-01-29T17:48:27.580Z,16.88
2023-01-29T17:51:07.667Z,13.23
2023-01-29T17:53:52.565Z,14.23
2023-01-29T17:56:30.849Z,9.93
2023-01-29T17:59:12.271Z,10.20
2023-01-29T18:01:56.502Z,13.18
2023-01-29T18:04:31.335Z,13.75
2023-01-29T18:06:59.558Z,12.05
2023-01-29T18:09:31.611Z,11.23
2023-01-29T18:12:01.955Z,13.20
2023-01-29T18:14:46.108Z,15.38
2023-01-29T18:20:33.589Z,11.23
2023-01-29T18:23:09.321Z,11.57
2023-01-29T18:25:39.895Z,13.63
2023-01-29T18:28:07.825Z,15.88
2023-01-29T18:30:47.441Z,13.40
2023-01-29T18:33:41.436Z,19.95
2023-01-29T18:38:53.352Z,18.48
2023-01-29T18:41:26.984Z,12.73
2023-01-29T18:46:32.937Z,12.18
2023-01-29T18:49:14.605Z,16.20
2023-01-29T18:51:57.600Z,19.40
2023-01-29T18:54:29.787Z,17.27
2023-01-29T18:58:27.829Z,12.13
2023-01-29T19:00:27.732Z,13.75
2023-01-29T19:02:55.153Z,18.67
2023-01-29T19:05:24.051Z,15.25
2023-01-29T19:08:06.704Z,15.68
2023-01-29T19:10:40.940Z,42.35
2023-01-29T19:13:11.297Z,19.02
2023-01-29T19:15:43.660Z,15.30
2023-01-29T19:18:15.047Z,13.32
2023-01-29T19:20:42.906Z,16.75
2023-01-29T19:23:17.678Z,15.07
2023-01-29T19:25:49.583Z,15.30
2023-01-29T19:28:24.152Z,16.65
2023-01-29T19:31:02.242Z,13.82
2023-01-29T19:33:36.106Z,16.38
2023-01-29T19:36:13.907Z,18.67
2023-01-29T19:38:44.609Z,16.35
2023-01-29T19:41:12.020Z,18.70
2023-01-29T19:44:16.429Z,26.48
2023-01-29T19:47:14.123Z,25.67
2023-01-29T19:49:53.659Z,23.92
2023-01-29T19:52:50.124Z,19.23
2023-01-29T19:55:21.307Z,19.98
2023-01-29T19:57:58.971Z,18.50
2023-01-29T20:01:04.646Z,23.40
2023-01-29T20:03:35.171Z,17.73
2023-01-29T20:06:11.951Z,17.40
2023-01-29T20:08:58.821Z,22.52
2023-01-29T20:11:28.319Z,19.52
2023-01-29T20:13:59.156Z,25.35
2023-01-29T20:16:41.480Z,17.42
2023-01-29T20:19:14.474Z,18.35
2023-01-29T20:24:24.277Z,21.42
2023-01-29T20:26:55.987Z,22.23
2023-01-29T20:29:29.266Z,17.65
2023-01-29T20:34:59.154Z,23.45
2023-01-29T20:37:27.672Z,25.35
2023-01-29T20:39:55.051Z,28.05
2023-01-29T20:42:34.880Z,34.63
2023-01-29T20:45:02.182Z,29.17
2023-01-29T20:47:54.500Z,32.15
2023-01-29T20:50:23.419Z,27.75
2023-01-29T20:52:53.549Z,29.77
2023-01-29T20:55:23.781Z,27.25
2023-01-29T20:58:05.761Z,24.87
2023-01-29T21:00:46.358Z,21.45
2023-01-29T21:03:22.072Z,23.75
2023-01-29T21:05:50.581Z,20.30
2023-01-29T21:08:26.180Z,20.48
2023-01-29T21:11:12.562Z,23.23
2023-01-29T21:13:49.432Z,23.23
2023-01-29T21:16:16.742Z,22.55
2023-01-29T21:18:53.735Z,21.42
2023-01-29T21:21:24.672Z,22.48
2023-01-29T21:26:58.860Z,20.42
2023-01-29T21:29:29.664Z,22.85
2023-01-29T21:32:07.479Z,21.67
2023-01-29T21:34:40.673Z,26.90
2023-01-29T21:37:14.263Z,22.38
2023-01-29T21:42:34.904Z,21.65
2023-01-29T21:45:05.407Z,18.02
2023-01-29T21:47:32.568Z,30.50
2023-01-29T21:50:00.031Z,22.02
2023-01-29T21:52:27.212Z,14.23
2023-01-29T21:54:59.580Z,17.45
2023-01-29T21:57:29.332Z,16.33
2023-01-29T22:00:05.439Z,21.00
2023-01-29T22:02:56.650Z,14.93
2023-01-29T22:05:29.058Z,16.63
2023-01-29T22:07:56.883Z,14.20
2023-01-29T22:10:27.179Z,16.65
2023-01-29T22:12:57.325Z,15.52
2023-01-29T22:15:27.728Z,17.67
2023-01-29T22:17:55.386Z,14.40
2023-01-29T22:20:29.964Z,14.35
2023-01-29T22:23:03.174Z,16.63
2023-01-29T22:25:37.445Z,20.27
2023-01-29T22:28:06.178Z,19.33
2023-01-29T22:30:47.914Z,14.98
2023-01-29T22:33:44.052Z,20.83
2023-01-29T22:36:18.263Z,19.50
2023-01-29T22:38:47.394Z,18.10
2023-01-29T22:41:24.501Z,15.75
2023-01-29T22:46:46.494Z,15.48
2023-01-29T22:49:23.488Z,13.82
2023-01-29T22:55:01.502Z,13.52
2023-01-29T22:57:34.957Z,15.23
2023-01-29T23:00:10.344Z,13.73
2023-01-29T23:02:38.302Z,16.33
2023-01-29T23:05:10.146Z,20.70
2023-01-29T23:07:41.724Z,14.77
2023-01-29T23:13:31.799Z,14.15
2023-01-29T23:16:10.187Z,17.63
2023-01-29T23:18:42.326Z,16.38
2023-01-29T23:21:15.692Z,15.98
2023-01-29T23:23:50.317Z,13.85
2023-01-29T23:29:27.953Z,15.73
2023-01-29T23:31:55.388Z,14.80
2023-01-29T23:34:29.118Z,14.82
2023-01-29T23:36:56.598Z,15.45
2023-01-29T23:39:26.779Z,15.63
2023-01-29T23:41:54.153Z,13.38
2023-01-29T23:44:27.621Z,14.55
2023-01-29T23:49:36.791Z,11.95
2023-01-29T23:52:11.325Z,14.13
2023-01-29T23:54:38.993Z,13.48
2023-01-29T23:57:06.558Z,10.88
2023-01-29T23:59:57.340Z,15.55
